This is the latest recevied weather packets stored in our database for station/object KD4KKF. If no packets are shown the sender has not sent any weather packets the latest 10 day(s).
| Time | Temp. | Humidity | Pressure | Rain* | Wind** | Luminosity | Snow |
|---|---|---|---|---|---|---|---|
| 1777727947 | 13.33° C | 69% | 1015.7 hPa | 0 mm | - | 176 W/m² | - |
| 1777727644 | 13.33° C | 66% | 1015.7 hPa | 0 mm | - | 199 W/m² | - |
| 1777727341 | 13.89° C | 66% | 1015.8 hPa | 0 mm | - | 430 W/m² | - |
| 1777727038 | 13.33° C | 67% | 1015.5 hPa | 0 mm | - | 323 W/m² | - |
| 1777726735 | 13.33° C | 68% | 1015.7 hPa | 0 mm | - | 241 W/m² | - |
| 1777726433 | 12.78° C | 69% | 1015.7 hPa | 0 mm | - | 227 W/m² | - |
| 1777726129 | 12.78° C | 70% | 1015.6 hPa | 0 mm | - | 180 W/m² | - |
| 1777725826 | 12.78° C | 71% | 1015.7 hPa | 0 mm | - | 182 W/m² | - |
| 1777725524 | 12.78° C | 71% | 1015.5 hPa | 0 mm | - | 163 W/m² | - |
| 1777725221 | 12.22° C | 75% | 1015.7 hPa | 0 mm | - | 120 W/m² | - |
| 1777724918 | 11.67° C | 81% | 1015.5 hPa | 0 mm | - | 75 W/m² | - |
| 1777724613 | 11.11° C | 80% | 1015.7 hPa | 0 mm | - | 59 W/m² | - |
| 1777724313 | 10.56° C | 82% | 1015.3 hPa | 0 mm | - | 59 W/m² | - |
| 1777724010 | 10.56° C | 81% | 1015.3 hPa | 0 mm | - | 65 W/m² | - |
| 1777723706 | 10.56° C | 83% | 1015.3 hPa | 0 mm | - | 65 W/m² | - |
| 1777723403 | 10.56° C | 82% | 1015.2 hPa | 0 mm | - | 58 W/m² | - |
| 1777723101 | 10.56° C | 82% | 1015.1 hPa | 0 mm | - | 46 W/m² | - |
| 1777722797 | 10° C | 81% | 1015.3 hPa | 0 mm | - | 37 W/m² | - |
| 1777722494 | 10° C | 81% | 1015.3 hPa | 0 mm | - | 33 W/m² | - |
| 1777722191 | 10° C | 80% | 1015.2 hPa | 0 mm | - | 24 W/m² | - |
| 1777721888 | 10° C | 81% | 1015.1 hPa | 0 mm | - | 21 W/m² | - |
| 1777721586 | 10° C | 83% | 1015 hPa | 0 mm | - | 21 W/m² | - |
| 1777721283 | 10° C | 83% | 1015.1 hPa | 0 mm | - | 16 W/m² | - |
| 1777720980 | 10° C | 85% | 1014.7 hPa | 0 mm | - | 10 W/m² | - |
| 1777720677 | 10° C | 82% | 1014.9 hPa | 0 mm | - | 7 W/m² | - |
* Rain latest hour (hover to see other rain measurements)
** Current wind speed in m/s (hover to see current wind gust speed)